»·PEaware :: N323CB KGEG-KBFI

N323CB :: KGEG-KBFI

FLIGHT INFORMATION

Flight Status: Arrived
Operator: Privately registered:
United States
More flights under this callsign
Pilot: Chris B. (7910)
Aircraft: Unknown
(P28U)
More flights by this aircraft type
Origin: KGEG Spokane Intl
United States
Destination: KBFI Boeing Field/King Co Intl
United States
More flights between these airports :: More routes between these airports
Route: +GEG3 GEG V120 SEA
File this flight plan on PilotEdge
Remarks:
Altitude:
(Current/Filed)
10,000ft
Speed:
(Current/Filed)
140kts
Departed: 14-Apr-18 09:22 AM
Arrived: 14-Apr-18 11:21 AM
Distance/Time
Traveled:
193nm/1:59
Distance/Time
To Go:
Arrived

Flight Plot

Page will automatically refresh every two minutes.

Flight plan parsing failed; only flown route is shown


Map Options




Map Legend


Flown Route
Filed Route
Departure Airport
Arrival Airport
Navaid (VOR, NDB)
Fix

Horizontal Profiles

Position Reports

Time Latitude Longitude Heading Altitude Ground
Speed
14-Apr-18 09:04 47.618805 -117.526088 251 2363ft 0kts
14-Apr-18 09:05 47.618805 -117.526088 251 2363ft 0kts
14-Apr-18 09:06 47.618805 -117.526088 251 2363ft 0kts
14-Apr-18 09:07 47.618805 -117.526088 251 2363ft 0kts
14-Apr-18 09:08 47.618805 -117.526088 251 2363ft 0kts
14-Apr-18 09:09 47.618805 -117.526088 251 2363ft 0kts
14-Apr-18 09:10 47.618805 -117.526088 251 2363ft 0kts
14-Apr-18 09:11 47.618805 -117.526088 251 2363ft 0kts
14-Apr-18 09:12 47.618805 -117.526088 251 2363ft 0kts
14-Apr-18 09:13 47.618805 -117.526088 251 2363ft 0kts
14-Apr-18 09:14 47.618792 -117.526159 259 2363ft 0kts
14-Apr-18 09:15 47.618159 -117.525384 171 2366ft 4kts
14-Apr-18 09:16 47.617860 -117.520899 92 2367ft 9kts
14-Apr-18 09:17 47.617633 -117.520255 151 2367ft 0kts
14-Apr-18 09:18 47.617633 -117.520255 151 2367ft 0kts
14-Apr-18 09:19 47.617633 -117.520255 151 2367ft 0kts
14-Apr-18 09:20 47.617087 -117.520262 192 2369ft 4kts
14-Apr-18 09:21 47.617500 -117.535677 260 2749ft 72kts
14-Apr-18 09:22 47.602581 -117.557099 217 3951ft 87kts
14-Apr-18 09:23 47.583448 -117.579029 218 5315ft 90kts
14-Apr-18 09:24 47.568306 -117.605292 276 6666ft 95kts
14-Apr-18 09:25 47.574993 -117.643200 283 7970ft 100kts
14-Apr-18 09:26 47.584409 -117.679894 285 9330ft 99kts
14-Apr-18 09:27 47.594631 -117.722067 285 9992ft 138kts
14-Apr-18 09:28 47.593700 -117.776593 252 9940ft 146kts
14-Apr-18 09:29 47.583419 -117.828606 255 9969ft 127kts
14-Apr-18 09:30 47.575099 -117.878317 257 10015ft 124kts
14-Apr-18 09:31 47.568164 -117.928296 259 10034ft 124kts
14-Apr-18 09:32 47.559750 -117.977778 256 10050ft 124kts
14-Apr-18 09:33 47.555118 -118.026956 264 10050ft 124kts
14-Apr-18 09:34 47.550746 -118.078017 260 10013ft 125kts
14-Apr-18 09:35 47.544968 -118.128380 259 9994ft 125kts
14-Apr-18 09:36 47.538801 -118.178584 259 9976ft 125kts
14-Apr-18 09:37 47.532463 -118.229153 259 9958ft 125kts
14-Apr-18 09:38 47.526164 -118.279032 259 9955ft 124kts
14-Apr-18 09:39 47.519896 -118.328394 259 9937ft 124kts
14-Apr-18 09:40 47.513576 -118.377996 259 9943ft 122kts
14-Apr-18 09:41 47.507355 -118.426596 259 9993ft 121kts
14-Apr-18 09:42 47.501089 -118.475399 259 10023ft 121kts
14-Apr-18 09:43 47.494849 -118.523827 259 10050ft 121kts
14-Apr-18 09:44 47.489399 -118.565954 259 10064ft 125kts
14-Apr-18 09:45 47.483848 -118.608853 259 10057ft 129kts
14-Apr-18 09:46 47.477724 -118.655972 258 10068ft 129kts
14-Apr-18 09:47 47.471107 -118.706720 258 10075ft 130kts
14-Apr-18 09:48 47.464916 -118.754048 258 10023ft 131kts
14-Apr-18 09:49 47.458066 -118.806226 258 9996ft 129kts
14-Apr-18 09:50 47.451216 -118.858151 258 9980ft 128kts
14-Apr-18 09:51 47.444575 -118.908315 258 9967ft 128kts
14-Apr-18 09:52 47.439167 -118.949040 258 9959ft 128kts
14-Apr-18 09:53 47.433257 -118.993398 258 9990ft 126kts
14-Apr-18 09:54 47.426599 -119.043191 258 9958ft 128kts
14-Apr-18 09:55 47.420978 -119.085071 258 10017ft 123kts
14-Apr-18 09:56 47.415981 -119.122139 258 10086ft 123kts
14-Apr-18 09:57 47.410788 -119.160659 258 10086ft 125kts
14-Apr-18 09:58 47.405550 -119.199437 258 10087ft 125kts
14-Apr-18 09:59 47.399990 -119.240478 258 10073ft 126kts
14-Apr-18 10:00 47.393521 -119.288101 258 10011ft 124kts
14-Apr-18 10:01 47.386802 -119.337572 256 9957ft 124kts
14-Apr-18 10:02 47.380448 -119.383675 256 9959ft 121kts
14-Apr-18 10:03 47.375387 -119.427753 268 9973ft 120kts
14-Apr-18 10:04 47.376609 -119.476998 268 9975ft 119kts
14-Apr-18 10:05 47.377807 -119.519881 268 9963ft 119kts
14-Apr-18 10:06 47.379158 -119.567168 268 9996ft 115kts
14-Apr-18 10:07 47.380413 -119.612061 268 9978ft 115kts
14-Apr-18 10:08 47.381575 -119.653864 267 10022ft 115kts
14-Apr-18 10:09 47.382874 -119.700719 267 10064ft 117kts
14-Apr-18 10:10 47.384201 -119.748814 268 10057ft 121kts
14-Apr-18 10:11 47.385548 -119.798031 268 10028ft 120kts
14-Apr-18 10:12 47.386839 -119.846235 268 10040ft 119kts
14-Apr-18 10:13 47.388039 -119.892053 268 10051ft 120kts
14-Apr-18 10:14 47.389317 -119.941463 268 10047ft 122kts
14-Apr-18 10:15 47.390585 -119.991293 268 10049ft 123kts
14-Apr-18 10:16 47.391815 -120.040520 268 10050ft 123kts
14-Apr-18 10:17 47.393053 -120.090943 268 10038ft 125kts
14-Apr-18 10:18 47.394236 -120.139953 268 10036ft 125kts
14-Apr-18 10:19 47.395410 -120.189508 268 10001ft 127kts
14-Apr-18 10:20 47.396684 -120.241607 268 9997ft 128kts
14-Apr-18 10:21 47.397949 -120.292465 268 9982ft 125kts
14-Apr-18 10:22 47.398841 -120.329198 268 9963ft 125kts
14-Apr-18 10:23 47.399628 -120.362233 268 9949ft 125kts
14-Apr-18 10:24 47.400445 -120.396908 268 9923ft 125kts
14-Apr-18 10:25 47.401296 -120.433348 268 9923ft 124kts
14-Apr-18 10:26 47.402117 -120.469261 268 9928ft 124kts
14-Apr-18 10:27 47.402874 -120.502826 268 9940ft 123kts
14-Apr-18 10:28 47.403556 -120.533343 268 9962ft 122kts
14-Apr-18 10:29 47.404288 -120.566486 268 10002ft 122kts
14-Apr-18 10:30 47.404965 -120.597522 268 9982ft 122kts
14-Apr-18 10:31 47.405666 -120.630107 268 9962ft 122kts
14-Apr-18 10:32 47.406688 -120.678506 268 9951ft 122kts
14-Apr-18 10:33 47.407718 -120.727999 268 9952ft 122kts
14-Apr-18 10:34 47.408670 -120.775943 268 9954ft 125kts
14-Apr-18 10:35 47.409694 -120.826981 268 10006ft 126kts
14-Apr-18 10:36 47.410560 -120.871019 268 9999ft 127kts
14-Apr-18 10:37 47.411268 -120.907803 268 10001ft 127kts
14-Apr-18 10:38 47.411951 -120.943982 268 10002ft 127kts
14-Apr-18 10:39 47.412500 -120.973500 268 10002ft 127kts
14-Apr-18 10:40 47.413029 -121.002380 268 10001ft 127kts
14-Apr-18 10:41 47.413564 -121.031973 268 9999ft 127kts
14-Apr-18 10:42 47.414164 -121.065704 268 9997ft 127kts
14-Apr-18 10:43 47.414686 -121.095535 268 9993ft 127kts
14-Apr-18 10:44 47.415212 -121.126040 268 9990ft 127kts
14-Apr-18 10:45 47.415747 -121.157522 268 9985ft 127kts
14-Apr-18 10:46 47.416291 -121.190119 268 9981ft 127kts
14-Apr-18 10:47 47.416850 -121.224203 268 9976ft 127kts
14-Apr-18 10:48 47.420406 -121.261745 293 9928ft 136kts
14-Apr-18 10:49 47.434952 -121.290925 302 9927ft 138kts
14-Apr-18 10:50 47.451094 -121.317730 303 9927ft 138kts
14-Apr-18 10:51 47.468654 -121.346956 303 9925ft 138kts
14-Apr-18 10:52 47.492389 -121.386610 303 9918ft 138kts
14-Apr-18 10:53 47.517450 -121.428670 303 9911ft 138kts
14-Apr-18 10:54 47.539941 -121.466586 303 9904ft 138kts
14-Apr-18 10:55 47.556464 -121.494541 303 9902ft 138kts
14-Apr-18 10:56 47.574684 -121.525470 303 9892ft 138kts
14-Apr-18 10:57 47.593302 -121.557178 302 9890ft 138kts
14-Apr-18 10:58 47.611762 -121.588717 302 9885ft 138kts
14-Apr-18 10:59 47.628612 -121.621190 279 9794ft 135kts
14-Apr-18 11:00 47.634682 -121.668321 275 9377ft 142kts
14-Apr-18 11:01 47.641176 -121.725141 275 8896ft 141kts
14-Apr-18 11:02 47.648138 -121.781920 274 8367ft 146kts
14-Apr-18 11:03 47.657138 -121.839447 274 7836ft 148kts
14-Apr-18 11:04 47.665856 -121.896049 274 7156ft 149kts
14-Apr-18 11:05 47.674046 -121.951384 274 6396ft 151kts
14-Apr-18 11:06 47.677312 -122.009623 263 5646ft 149kts
14-Apr-18 11:07 47.677358 -122.066564 263 5047ft 147kts
14-Apr-18 11:08 47.677509 -122.123184 263 4515ft 140kts
14-Apr-18 11:09 47.677223 -122.179982 263 3839ft 139kts
14-Apr-18 11:10 47.676553 -122.236880 263 3166ft 140kts
14-Apr-18 11:11 47.676047 -122.289657 263 3022ft 122kts
14-Apr-18 11:12 47.675869 -122.340111 263 3020ft 122kts
14-Apr-18 11:13 47.675575 -122.390378 257 3020ft 122kts
14-Apr-18 11:14 47.649075 -122.402961 170 2529ft 102kts
14-Apr-18 11:15 47.629937 -122.384256 154 2068ft 77kts
14-Apr-18 11:16 47.610755 -122.369242 158 1586ft 80kts
14-Apr-18 11:17 47.591582 -122.354004 152 1148ft 84kts
14-Apr-18 11:18 47.571481 -122.336981 154 712ft 79kts
14-Apr-18 11:19 47.552845 -122.321484 153 327ft 68kts
14-Apr-18 11:20 47.537887 -122.309107 154 16ft 38kts
14-Apr-18 11:21 47.533890 -122.304559 92 16ft 11kts
14-Apr-18 11:22 47.534773 -122.303478 332 19ft 9kts
14-Apr-18 11:23 47.537015 -122.305398 19 19ft 8kts

Navigation Log

Ident Type
Flight plan parsing failed, navigation log unavailable